Terminal Aerodrome Forecast
Issued by NWS

Home | Current Version | Previous Version | Text Only | Print | Product List | Glossary On
Versions: 1 2 3 4 5 6 7 8 9 10 11 12 13 14
000
FTAK31 PAFA 272320
TAFAMC
TAF
PAMC 272320Z 2800/2824 31007KT P6SM VCTS BKN035CB
     FM280400 VRB04KT P6SM VCSH SCT035 BKN050 BKN100
     FM282100 VRB06KT P6SM VCTS SCT025CB BKN100=

USA.gov is the U.S. government's official web portal to all federal, state and local government web resources and services.